sensor_id;sensor_type;location;lat;lon;timestamp;pressure;altitude;pressure_sealevel;temperature;humidity
38452;BME280;24231;52.514;13.438;2023-02-23T00:04:19;100949.62;;;3.18;81.54
38452;BME280;24231;52.514;13.438;2023-02-23T00:08:58;100945.87;;;3.68;79.58
38452;BME280;24231;52.514;13.438;2023-02-23T00:11:21;100939.86;;;3.67;79.19
38452;BME280;24231;52.514;13.438;2023-02-23T00:13:49;100937.15;;;3.38;79.55
38452;BME280;24231;52.514;13.438;2023-02-23T00:16:23;100944.33;;;3.37;79.25
38452;BME280;24231;52.514;13.438;2023-02-23T00:18:53;100934.52;;;3.28;79.46
38452;BME280;24231;52.514;13.438;2023-02-23T00:21:30;100938.28;;;4.19;75.59
38452;BME280;24231;52.514;13.438;2023-02-23T00:24:06;100932.73;;;3.87;76.58
38452;BME280;24231;52.514;13.438;2023-02-23T00:26:39;100927.55;;;3.80;76.90
38452;BME280;24231;52.514;13.438;2023-02-23T00:32:55;100934.76;;;3.40;80.00
38452;BME280;24231;52.514;13.438;2023-02-23T00:35:22;100925.73;;;3.36;79.60
38452;BME280;24231;52.514;13.438;2023-02-23T00:38:12;100928.58;;;3.56;78.94
38452;BME280;24231;52.514;13.438;2023-02-23T00:40:39;100930.86;;;3.44;79.12
38452;BME280;24231;52.514;13.438;2023-02-23T00:43:07;100927.98;;;3.83;78.52
38452;BME280;24231;52.514;13.438;2023-02-23T00:45:43;100930.48;;;4.04;77.49
38452;BME280;24231;52.514;13.438;2023-02-23T00:48:11;100934.08;;;3.81;79.28
38452;BME280;24231;52.514;13.438;2023-02-23T00:50:38;100932.45;;;3.46;79.23
38452;BME280;24231;52.514;13.438;2023-02-23T00:53:05;100927.92;;;3.47;79.77
38452;BME280;24231;52.514;13.438;2023-02-23T00:55:32;100926.73;;;3.80;77.68
38452;BME280;24231;52.514;13.438;2023-02-23T00:58:00;100927.49;;;3.61;77.95
38452;BME280;24231;52.514;13.438;2023-02-23T01:00:27;100927.74;;;3.26;79.87
38452;BME280;24231;52.514;13.438;2023-02-23T01:02:56;100926.46;;;2.86;82.71
38452;BME280;24231;52.514;13.438;2023-02-23T01:05:34;100922.49;;;3.07;81.49
38452;BME280;24231;52.514;13.438;2023-02-23T01:09:10;100923.32;;;3.26;80.01
38452;BME280;24231;52.514;13.438;2023-02-23T01:11:38;100920.27;;;3.55;78.28
38452;BME280;24231;52.514;13.438;2023-02-23T01:14:05;100918.77;;;3.24;79.55
38452;BME280;24231;52.514;13.438;2023-02-23T01:16:34;100920.92;;;3.29;80.06
38452;BME280;24231;52.514;13.438;2023-02-23T01:19:03;100920.18;;;3.22;80.01
38452;BME280;24231;52.514;13.438;2023-02-23T01:21:33;100923.89;;;3.56;78.86
38452;BME280;24231;52.514;13.438;2023-02-23T01:24:01;100914.63;;;3.24;79.50
38452;BME280;24231;52.514;13.438;2023-02-23T01:26:31;100912.77;;;3.62;78.81
38452;BME280;24231;52.514;13.438;2023-02-23T01:29:03;100918.95;;;3.20;80.36
38452;BME280;24231;52.514;13.438;2023-02-23T01:31:31;100917.96;;;3.19;81.03
38452;BME280;24231;52.514;13.438;2023-02-23T01:34:00;100917.03;;;3.01;81.76
38452;BME280;24231;52.514;13.438;2023-02-23T01:36:34;100913.93;;;3.07;80.89
38452;BME280;24231;52.514;13.438;2023-02-23T01:39:02;100908.42;;;3.27;81.43
38452;BME280;24231;52.514;13.438;2023-02-23T01:41:29;100909.11;;;3.10;81.03
38452;BME280;24231;52.514;13.438;2023-02-23T01:43:59;100897.66;;;3.20;80.65
38452;BME280;24231;52.514;13.438;2023-02-23T01:46:40;100898.34;;;3.52;76.95
38452;BME280;24231;52.514;13.438;2023-02-23T01:49:09;100892.10;;;3.89;75.41
38452;BME280;24231;52.514;13.438;2023-02-23T01:51:41;100892.59;;;3.66;76.78
38452;BME280;24231;52.514;13.438;2023-02-23T01:54:13;100897.27;;;3.04;81.55
38452;BME280;24231;52.514;13.438;2023-02-23T01:56:43;100897.27;;;2.99;80.78
38452;BME280;24231;52.514;13.438;2023-02-23T01:59:13;100888.84;;;3.70;77.30
38452;BME280;24231;52.514;13.438;2023-02-23T02:01:42;100887.93;;;3.86;77.64
38452;BME280;24231;52.514;13.438;2023-02-23T02:04:10;100878.41;;;3.36;79.40
38452;BME280;24231;52.514;13.438;2023-02-23T02:06:39;100882.56;;;4.27;74.47
38452;BME280;24231;52.514;13.438;2023-02-23T02:09:08;100883.70;;;3.89;75.56
38452;BME280;24231;52.514;13.438;2023-02-23T02:11:36;100878.69;;;2.91;80.96
38452;BME280;24231;52.514;13.438;2023-02-23T02:14:06;100873.68;;;3.47;79.11
38452;BME280;24231;52.514;13.438;2023-02-23T02:16:50;100869.68;;;3.46;78.62
38452;BME280;24231;52.514;13.438;2023-02-23T02:20:16;100870.67;;;2.71;81.94
38452;BME280;24231;52.514;13.438;2023-02-23T02:23:19;100870.01;;;2.73;81.83
38452;BME280;24231;52.514;13.438;2023-02-23T02:26:03;100864.88;;;3.03;81.30
38452;BME280;24231;52.514;13.438;2023-02-23T02:29:59;100860.15;;;2.74;82.01
38452;BME280;24231;52.514;13.438;2023-02-23T02:32:46;100854.13;;;2.80;82.09
38452;BME280;24231;52.514;13.438;2023-02-23T02:35:38;100848.88;;;3.01;80.61
38452;BME280;24231;52.514;13.438;2023-02-23T02:38:16;100855.22;;;3.40;78.42
38452;BME280;24231;52.514;13.438;2023-02-23T02:40:50;100859.61;;;3.78;77.17
38452;BME280;24231;52.514;13.438;2023-02-23T02:43:25;100853.66;;;2.86;81.11
38452;BME280;24231;52.514;13.438;2023-02-23T02:46:03;100852.22;;;3.30;79.55
38452;BME280;24231;52.514;13.438;2023-02-23T02:48:38;100855.27;;;2.74;81.33
38452;BME280;24231;52.514;13.438;2023-02-23T02:51:12;100849.65;;;3.10;80.30
38452;BME280;24231;52.514;13.438;2023-02-23T02:53:47;100846.94;;;3.73;76.79
38452;BME280;24231;52.514;13.438;2023-02-23T02:56:21;100856.64;;;3.45;76.87
38452;BME280;24231;52.514;13.438;2023-02-23T02:58:52;100862.31;;;3.06;80.06
38452;BME280;24231;52.514;13.438;2023-02-23T03:01:19;100843.40;;;3.42;77.44
38452;BME280;24231;52.514;13.438;2023-02-23T03:03:46;100842.14;;;3.69;75.72
38452;BME280;24231;52.514;13.438;2023-02-23T03:06:14;100850.44;;;3.11;79.20
38452;BME280;24231;52.514;13.438;2023-02-23T03:08:47;100838.58;;;3.11;80.50
38452;BME280;24231;52.514;13.438;2023-02-23T03:11:16;100842.99;;;2.84;80.41
38452;BME280;24231;52.514;13.438;2023-02-23T03:13:50;100834.80;;;3.01;79.67
38452;BME280;24231;52.514;13.438;2023-02-23T03:16:29;100829.38;;;3.27;78.83
38452;BME280;24231;52.514;13.438;2023-02-23T03:19:08;100823.72;;;3.51;77.92
38452;BME280;24231;52.514;13.438;2023-02-23T03:21:49;100825.81;;;3.72;75.45
38452;BME280;24231;52.514;13.438;2023-02-23T03:24:22;100824.80;;;3.86;75.49
38452;BME280;24231;52.514;13.438;2023-02-23T03:26:57;100821.11;;;3.33;77.44
38452;BME280;24231;52.514;13.438;2023-02-23T03:29:31;100824.36;;;3.04;79.23
38452;BME280;24231;52.514;13.438;2023-02-23T03:32:05;100823.78;;;2.89;80.05
38452;BME280;24231;52.514;13.438;2023-02-23T03:34:38;100818.73;;;3.24;77.91
38452;BME280;24231;52.514;13.438;2023-02-23T03:37:13;100826.30;;;3.65;76.69
38452;BME280;24231;52.514;13.438;2023-02-23T03:39:46;100823.83;;;3.49;76.69
38452;BME280;24231;52.514;13.438;2023-02-23T03:42:18;100827.25;;;3.07;78.36
38452;BME280;24231;52.514;13.438;2023-02-23T03:44:48;100827.21;;;3.97;74.89
38452;BME280;24231;52.514;13.438;2023-02-23T03:47:19;100822.02;;;3.11;78.80
38452;BME280;24231;52.514;13.438;2023-02-23T03:49:50;100822.45;;;2.80;80.21
38452;BME280;24231;52.514;13.438;2023-02-23T03:52:28;100820.66;;;3.82;74.41
38452;BME280;24231;52.514;13.438;2023-02-23T03:54:59;100816.04;;;3.19;77.29
38452;BME280;24231;52.514;13.438;2023-02-23T03:57:30;100816.03;;;3.07;77.33
38452;BME280;24231;52.514;13.438;2023-02-23T04:00:00;100814.21;;;2.74;80.22
38452;BME280;24231;52.514;13.438;2023-02-23T04:02:30;100812.27;;;2.42;82.81
38452;BME280;24231;52.514;13.438;2023-02-23T04:05:03;100815.65;;;2.51;82.55
38452;BME280;24231;52.514;13.438;2023-02-23T04:07:33;100812.87;;;2.50;82.19
38452;BME280;24231;52.514;13.438;2023-02-23T04:10:19;100807.60;;;3.04;79.49
38452;BME280;24231;52.514;13.438;2023-02-23T04:12:57;100808.48;;;3.06;79.21
38452;BME280;24231;52.514;13.438;2023-02-23T04:15:30;100804.80;;;3.32;76.43
38452;BME280;24231;52.514;13.438;2023-02-23T04:18:02;100807.61;;;2.74;80.84
38452;BME280;24231;52.514;13.438;2023-02-23T04:20:29;100804.42;;;3.31;77.66
38452;BME280;24231;52.514;13.438;2023-02-23T04:23:02;100808.89;;;3.13;79.13
38452;BME280;24231;52.514;13.438;2023-02-23T04:25:30;100809.68;;;3.52;75.89
38452;BME280;24231;52.514;13.438;2023-02-23T04:27:57;100812.16;;;3.20;78.81
38452;BME280;24231;52.514;13.438;2023-02-23T04:30:25;100817.14;;;2.41;81.93
38452;BME280;24231;52.514;13.438;2023-02-23T04:32:53;100811.97;;;2.43;82.68
38452;BME280;24231;52.514;13.438;2023-02-23T04:35:20;100806.27;;;3.63;77.07
38452;BME280;24231;52.514;13.438;2023-02-23T04:37:48;100805.82;;;2.68;79.44
38452;BME280;24231;52.514;13.438;2023-02-23T04:40:15;100804.27;;;2.81;79.01
38452;BME280;24231;52.514;13.438;2023-02-23T04:42:42;100811.24;;;2.20;82.74
38452;BME280;24231;52.514;13.438;2023-02-23T04:45:11;100800.27;;;2.04;84.33
38452;BME280;24231;52.514;13.438;2023-02-23T04:47:43;100799.59;;;1.86;84.45
38452;BME280;24231;52.514;13.438;2023-02-23T04:50:11;100793.25;;;2.94;79.33
38452;BME280;24231;52.514;13.438;2023-02-23T04:52:38;100791.86;;;2.91;79.55
38452;BME280;24231;52.514;13.438;2023-02-23T04:55:14;100788.90;;;2.68;79.46
38452;BME280;24231;52.514;13.438;2023-02-23T04:57:42;100789.34;;;2.53;80.14
38452;BME280;24231;52.514;13.438;2023-02-23T05:00:15;100787.35;;;3.07;76.90
38452;BME280;24231;52.514;13.438;2023-02-23T05:03:03;100788.67;;;2.57;79.41
38452;BME280;24231;52.514;13.438;2023-02-23T05:05:31;100788.82;;;2.59;80.54
38452;BME280;24231;52.514;13.438;2023-02-23T05:07:59;100785.70;;;2.30;82.05
38452;BME280;24231;52.514;13.438;2023-02-23T05:10:31;100785.25;;;2.31;82.37
38452;BME280;24231;52.514;13.438;2023-02-23T05:12:59;100782.35;;;2.55;81.14
38452;BME280;24231;52.514;13.438;2023-02-23T05:15:26;100778.49;;;3.09;79.16
38452;BME280;24231;52.514;13.438;2023-02-23T05:17:54;100780.87;;;2.90;78.70
38452;BME280;24231;52.514;13.438;2023-02-23T05:20:23;100787.14;;;2.58;79.64
38452;BME280;24231;52.514;13.438;2023-02-23T05:22:50;100785.64;;;2.56;79.87
38452;BME280;24231;52.514;13.438;2023-02-23T05:25:18;100784.90;;;2.44;80.82
38452;BME280;24231;52.514;13.438;2023-02-23T05:27:46;100783.81;;;2.51;80.66
38452;BME280;24231;52.514;13.438;2023-02-23T05:30:14;100779.74;;;3.08;78.27
38452;BME280;24231;52.514;13.438;2023-02-23T05:32:42;100779.83;;;3.10;77.72
38452;BME280;24231;52.514;13.438;2023-02-23T05:35:09;100784.25;;;2.41;80.09
38452;BME280;24231;52.514;13.438;2023-02-23T05:37:36;100779.33;;;2.44;79.94
38452;BME280;24231;52.514;13.438;2023-02-23T05:40:09;100785.45;;;2.74;77.41
38452;BME280;24231;52.514;13.438;2023-02-23T05:42:37;100781.18;;;3.14;75.61
38452;BME280;24231;52.514;13.438;2023-02-23T05:45:05;100787.83;;;2.73;77.09
38452;BME280;24231;52.514;13.438;2023-02-23T05:47:35;100785.92;;;2.87;77.38
38452;BME280;24231;52.514;13.438;2023-02-23T05:50:03;100789.87;;;2.26;79.80
38452;BME280;24231;52.514;13.438;2023-02-23T05:52:30;100798.42;;;2.44;78.57
38452;BME280;24231;52.514;13.438;2023-02-23T05:54:58;100795.49;;;2.57;78.74
38452;BME280;24231;52.514;13.438;2023-02-23T05:57:26;100803.34;;;2.60;78.32
38452;BME280;24231;52.514;13.438;2023-02-23T05:59:53;100803.72;;;2.99;77.07
38452;BME280;24231;52.514;13.438;2023-02-23T06:02:21;100810.28;;;2.23;79.64
38452;BME280;24231;52.514;13.438;2023-02-23T06:04:48;100810.97;;;2.31;79.21
38452;BME280;24231;52.514;13.438;2023-02-23T06:07:16;100811.02;;;2.50;79.23
38452;BME280;24231;52.514;13.438;2023-02-23T06:09:43;100815.48;;;2.18;80.18
38452;BME280;24231;52.514;13.438;2023-02-23T06:12:15;100815.32;;;2.29;79.26
38452;BME280;24231;52.514;13.438;2023-02-23T06:14:42;100809.31;;;2.86;77.63
38452;BME280;24231;52.514;13.438;2023-02-23T06:17:11;100816.05;;;2.01;80.77
38452;BME280;24231;52.514;13.438;2023-02-23T06:19:38;100815.11;;;2.27;79.54
38452;BME280;24231;52.514;13.438;2023-02-23T06:22:05;100817.96;;;2.66;79.29
38452;BME280;24231;52.514;13.438;2023-02-23T06:24:32;100812.55;;;2.62;78.16
38452;BME280;24231;52.514;13.438;2023-02-23T06:27:00;100813.64;;;2.75;76.65
38452;BME280;24231;52.514;13.438;2023-02-23T06:29:27;100810.84;;;3.19;74.80
38452;BME280;24231;52.514;13.438;2023-02-23T06:31:54;100813.10;;;3.29;73.99
38452;BME280;24231;52.514;13.438;2023-02-23T06:34:21;100817.82;;;3.92;72.03
38452;BME280;24231;52.514;13.438;2023-02-23T06:37:30;100824.14;;;1.98;80.61
38452;BME280;24231;52.514;13.438;2023-02-23T06:40:20;100824.79;;;3.12;76.94
38452;BME280;24231;52.514;13.438;2023-02-23T06:42:47;100822.43;;;3.16;74.20
38452;BME280;24231;52.514;13.438;2023-02-23T06:45:14;100824.17;;;2.87;74.42
38452;BME280;24231;52.514;13.438;2023-02-23T06:47:41;100823.92;;;2.81;76.86
38452;BME280;24231;52.514;13.438;2023-02-23T06:50:10;100829.15;;;3.90;71.98
38452;BME280;24231;52.514;13.438;2023-02-23T06:52:37;100828.08;;;3.79;72.46
38452;BME280;24231;52.514;13.438;2023-02-23T06:55:07;100830.45;;;2.51;77.65
38452;BME280;24231;52.514;13.438;2023-02-23T06:57:35;100827.54;;;1.99;80.02
38452;BME280;24231;52.514;13.438;2023-02-23T07:00:03;100827.55;;;2.31;79.39
38452;BME280;24231;52.514;13.438;2023-02-23T07:02:30;100827.30;;;2.82;77.54
38452;BME280;24231;52.514;13.438;2023-02-23T07:04:59;100830.14;;;3.96;71.54
38452;BME280;24231;52.514;13.438;2023-02-23T07:07:26;100827.75;;;3.21;74.61
38452;BME280;24231;52.514;13.438;2023-02-23T07:09:53;100827.86;;;4.04;70.13
38452;BME280;24231;52.514;13.438;2023-02-23T07:12:21;100825.39;;;3.11;73.98
38452;BME280;24231;52.514;13.438;2023-02-23T07:14:48;100826.17;;;3.25;75.47
38452;BME280;24231;52.514;13.438;2023-02-23T07:17:25;100826.55;;;2.90;77.66
38452;BME280;24231;52.514;13.438;2023-02-23T07:19:53;100828.28;;;4.36;70.29
38452;BME280;24231;52.514;13.438;2023-02-23T07:23:15;100831.19;;;2.86;75.63
38452;BME280;24231;52.514;13.438;2023-02-23T07:25:45;100824.50;;;3.36;75.14
38452;BME280;24231;52.514;13.438;2023-02-23T07:28:17;100826.60;;;1.98;80.93
38452;BME280;24231;52.514;13.438;2023-02-23T07:30:45;100825.29;;;3.53;75.30
38452;BME280;24231;52.514;13.438;2023-02-23T07:33:13;100826.19;;;3.84;72.93
38452;BME280;24231;52.514;13.438;2023-02-23T07:35:42;100823.63;;;3.41;73.65
38452;BME280;24231;52.514;13.438;2023-02-23T07:38:10;100821.68;;;3.35;74.55
38452;BME280;24231;52.514;13.438;2023-02-23T07:40:40;100823.89;;;4.14;71.44
38452;BME280;24231;52.514;13.438;2023-02-23T07:43:09;100823.19;;;3.62;73.47
38452;BME280;24231;52.514;13.438;2023-02-23T07:45:36;100816.91;;;3.53;74.13
38452;BME280;24231;52.514;13.438;2023-02-23T07:48:10;100819.14;;;3.94;71.90
38452;BME280;24231;52.514;13.438;2023-02-23T07:50:44;100816.45;;;3.97;71.96
38452;BME280;24231;52.514;13.438;2023-02-23T07:53:11;100817.54;;;4.05;70.74
38452;BME280;24231;52.514;13.438;2023-02-23T07:55:58;100811.47;;;5.00;67.55
38452;BME280;24231;52.514;13.438;2023-02-23T07:58:26;100818.22;;;4.19;70.23
38452;BME280;24231;52.514;13.438;2023-02-23T08:00:54;100817.66;;;4.11;69.65
38452;BME280;24231;52.514;13.438;2023-02-23T08:04:31;100817.30;;;3.87;72.80
38452;BME280;24231;52.514;13.438;2023-02-23T08:06:59;100816.79;;;3.58;73.33
38452;BME280;24231;52.514;13.438;2023-02-23T08:09:33;100816.81;;;3.71;73.22
38452;BME280;24231;52.514;13.438;2023-02-23T08:12:01;100815.74;;;4.44;69.89
38452;BME280;24231;52.514;13.438;2023-02-23T08:14:34;100816.06;;;4.34;70.42
38452;BME280;24231;52.514;13.438;2023-02-23T08:17:01;100814.21;;;4.18;71.48
38452;BME280;24231;52.514;13.438;2023-02-23T08:19:29;100813.63;;;4.43;70.58
38452;BME280;24231;52.514;13.438;2023-02-23T08:21:56;100812.13;;;4.65;70.00
38452;BME280;24231;52.514;13.438;2023-02-23T08:24:24;100812.06;;;4.46;70.28
38452;BME280;24231;52.514;13.438;2023-02-23T08:26:52;100816.24;;;4.66;70.16
38452;BME280;24231;52.514;13.438;2023-02-23T08:29:19;100810.89;;;4.81;68.76
38452;BME280;24231;52.514;13.438;2023-02-23T08:31:47;100806.66;;;5.05;68.90
38452;BME280;24231;52.514;13.438;2023-02-23T08:36:35;100808.56;;;5.02;68.84
38452;BME280;24231;52.514;13.438;2023-02-23T08:39:19;100806.26;;;5.01;68.85
38452;BME280;24231;52.514;13.438;2023-02-23T08:41:51;100804.66;;;5.07;69.12
38452;BME280;24231;52.514;13.438;2023-02-23T08:44:18;100805.48;;;5.53;66.17
38452;BME280;24231;52.514;13.438;2023-02-23T08:46:52;100805.14;;;5.56;66.67
38452;BME280;24231;52.514;13.438;2023-02-23T08:49:19;100804.00;;;5.37;66.81
38452;BME280;24231;52.514;13.438;2023-02-23T08:51:47;100808.29;;;5.26;68.12
38452;BME280;24231;52.514;13.438;2023-02-23T08:54:14;100809.84;;;5.41;67.22
38452;BME280;24231;52.514;13.438;2023-02-23T08:56:43;100808.16;;;5.91;65.41
38452;BME280;24231;52.514;13.438;2023-02-23T08:59:17;100808.99;;;5.53;66.39
38452;BME280;24231;52.514;13.438;2023-02-23T09:01:47;100807.72;;;5.75;64.87
38452;BME280;24231;52.514;13.438;2023-02-23T09:04:15;100804.81;;;7.18;61.25
38452;BME280;24231;52.514;13.438;2023-02-23T09:06:43;100807.14;;;7.45;58.52
38452;BME280;24231;52.514;13.438;2023-02-23T09:09:11;100807.53;;;6.40;62.42
38452;BME280;24231;52.514;13.438;2023-02-23T09:11:39;100806.94;;;6.76;60.90
38452;BME280;24231;52.514;13.438;2023-02-23T09:14:07;100807.38;;;7.08;59.04
38452;BME280;24231;52.514;13.438;2023-02-23T09:16:35;100807.65;;;6.22;62.00
38452;BME280;24231;52.514;13.438;2023-02-23T09:19:02;100801.61;;;8.91;54.34
38452;BME280;24231;52.514;13.438;2023-02-23T09:21:35;100809.74;;;6.47;61.53
38452;BME280;24231;52.514;13.438;2023-02-23T09:24:03;100811.59;;;6.64;61.79
38452;BME280;24231;52.514;13.438;2023-02-23T09:26:32;100809.41;;;8.41;56.34
38452;BME280;24231;52.514;13.438;2023-02-23T09:29:01;100813.55;;;7.49;57.85
38452;BME280;24231;52.514;13.438;2023-02-23T09:31:31;100813.10;;;7.17;59.88
38452;BME280;24231;52.514;13.438;2023-02-23T09:33:59;100811.78;;;7.78;59.03
38452;BME280;24231;52.514;13.438;2023-02-23T09:36:28;100810.01;;;7.45;60.42
38452;BME280;24231;52.514;13.438;2023-02-23T09:38:58;100809.86;;;7.09;60.96
38452;BME280;24231;52.514;13.438;2023-02-23T09:41:52;100809.39;;;8.06;58.70
38452;BME280;24231;52.514;13.438;2023-02-23T09:44:31;100809.62;;;7.01;62.46
38452;BME280;24231;52.514;13.438;2023-02-23T09:47:14;100811.01;;;7.64;60.08
38452;BME280;24231;52.514;13.438;2023-02-23T09:49:48;100810.55;;;8.13;59.42
38452;BME280;24231;52.514;13.438;2023-02-23T09:52:21;100806.38;;;7.06;62.58
38452;BME280;24231;52.514;13.438;2023-02-23T09:54:53;100808.19;;;8.20;59.35
38452;BME280;24231;52.514;13.438;2023-02-23T09:57:32;100804.65;;;7.81;61.02
38452;BME280;24231;52.514;13.438;2023-02-23T10:00:13;100804.11;;;7.69;60.64
38452;BME280;24231;52.514;13.438;2023-02-23T10:02:55;100796.67;;;9.17;56.28
38452;BME280;24231;52.514;13.438;2023-02-23T10:05:29;100804.05;;;8.36;58.78
38452;BME280;24231;52.514;13.438;2023-02-23T10:08:05;100803.59;;;8.55;58.37
38452;BME280;24231;52.514;13.438;2023-02-23T10:10:41;100800.36;;;9.09;57.45
38452;BME280;24231;52.514;13.438;2023-02-23T10:13:17;100803.39;;;8.83;58.39
38452;BME280;24231;52.514;13.438;2023-02-23T10:15:52;100801.66;;;9.06;58.16
38452;BME280;24231;52.514;13.438;2023-02-23T10:18:28;100802.00;;;10.23;54.29
38452;BME280;24231;52.514;13.438;2023-02-23T10:21:05;100798.68;;;10.12;55.13
38452;BME280;24231;52.514;13.438;2023-02-23T10:23:46;100792.67;;;10.43;53.92
38452;BME280;24231;52.514;13.438;2023-02-23T10:26:35;100790.42;;;11.60;51.09
38452;BME280;24231;52.514;13.438;2023-02-23T10:29:19;100787.14;;;11.04;52.40
38452;BME280;24231;52.514;13.438;2023-02-23T10:31:55;100788.58;;;11.71;50.96
38452;BME280;24231;52.514;13.438;2023-02-23T10:34:27;100788.11;;;11.75;50.36
38452;BME280;24231;52.514;13.438;2023-02-23T10:36:59;100788.16;;;10.64;54.19
38452;BME280;24231;52.514;13.438;2023-02-23T10:39:28;100789.24;;;11.87;50.92
38452;BME280;24231;52.514;13.438;2023-02-23T10:42:00;100785.54;;;11.05;52.09
38452;BME280;24231;52.514;13.438;2023-02-23T10:44:30;100784.83;;;12.94;48.26
38452;BME280;24231;52.514;13.438;2023-02-23T10:47:00;100779.69;;;12.96;48.03
38452;BME280;24231;52.514;13.438;2023-02-23T10:49:38;100780.96;;;12.76;48.63
38452;BME280;24231;52.514;13.438;2023-02-23T10:52:10;100778.83;;;12.55;49.36
38452;BME280;24231;52.514;13.438;2023-02-23T10:54:41;100772.33;;;12.61;48.72
38452;BME280;24231;52.514;13.438;2023-02-23T10:57:29;100775.40;;;12.51;49.34
38452;BME280;24231;52.514;13.438;2023-02-23T11:00:34;100776.01;;;12.17;50.17
38452;BME280;24231;52.514;13.438;2023-02-23T11:03:16;100768.93;;;13.11;48.32
38452;BME280;24231;52.514;13.438;2023-02-23T11:05:45;100769.91;;;13.51;46.76
38452;BME280;24231;52.514;13.438;2023-02-23T11:08:21;100766.91;;;13.07;48.32
38452;BME280;24231;52.514;13.438;2023-02-23T11:11:03;100768.79;;;11.34;53.05
38452;BME280;24231;52.514;13.438;2023-02-23T11:13:37;100766.15;;;12.23;51.32
38452;BME280;24231;52.514;13.438;2023-02-23T11:16:09;100763.09;;;12.18;50.94
38452;BME280;24231;52.514;13.438;2023-02-23T11:18:39;100759.38;;;13.22;48.30
38452;BME280;24231;52.514;13.438;2023-02-23T11:21:19;100764.28;;;11.67;51.80
38452;BME280;24231;52.514;13.438;2023-02-23T11:23:50;100757.83;;;13.62;47.31
38452;BME280;24231;52.514;13.438;2023-02-23T11:26:24;100754.70;;;14.14;45.90
38452;BME280;24231;52.514;13.438;2023-02-23T11:28:56;100753.91;;;13.30;47.81
38452;BME280;24231;52.514;13.438;2023-02-23T11:31:30;100752.66;;;13.55;47.92
38452;BME280;24231;52.514;13.438;2023-02-23T11:33:59;100757.74;;;11.24;53.81
38452;BME280;24231;52.514;13.438;2023-02-23T11:36:30;100754.57;;;11.56;53.45
38452;BME280;24231;52.514;13.438;2023-02-23T11:39:04;100745.35;;;12.99;49.83
38452;BME280;24231;52.514;13.438;2023-02-23T11:41:33;100742.71;;;13.54;48.26
38452;BME280;24231;52.514;13.438;2023-02-23T11:44:02;100747.93;;;10.99;55.21
38452;BME280;24231;52.514;13.438;2023-02-23T11:46:34;100747.29;;;11.83;52.99
38452;BME280;24231;52.514;13.438;2023-02-23T11:49:05;100734.57;;;12.70;52.57
38452;BME280;24231;52.514;13.438;2023-02-23T11:51:34;100728.30;;;13.12;49.48
38452;BME280;24231;52.514;13.438;2023-02-23T11:54:04;100723.27;;;14.26;47.23
38452;BME280;24231;52.514;13.438;2023-02-23T11:56:35;100724.32;;;13.51;48.59
38452;BME280;24231;52.514;13.438;2023-02-23T11:59:06;100721.57;;;13.54;47.96
38452;BME280;24231;52.514;13.438;2023-02-23T12:01:44;100715.95;;;13.89;47.69
38452;BME280;24231;52.514;13.438;2023-02-23T12:04:24;100709.54;;;14.52;46.00
38452;BME280;24231;52.514;13.438;2023-02-23T12:06:55;100711.02;;;14.73;45.76
38452;BME280;24231;52.514;13.438;2023-02-23T12:09:45;100711.45;;;12.53;50.40
38452;BME280;24231;52.514;13.438;2023-02-23T12:12:18;100713.09;;;12.14;52.45
38452;BME280;24231;52.514;13.438;2023-02-23T12:14:50;100711.97;;;12.83;51.66
38452;BME280;24231;52.514;13.438;2023-02-23T12:17:24;100712.44;;;12.69;51.76
38452;BME280;24231;52.514;13.438;2023-02-23T19:32:40;100626.64;;;10.83;70.75
38452;BME280;24231;52.514;13.438;2023-02-23T19:35:10;100625.80;;;10.52;72.54
38452;BME280;24231;52.514;13.438;2023-02-23T19:37:37;100625.55;;;11.05;70.47
38452;BME280;24231;52.514;13.438;2023-02-23T19:40:06;100621.81;;;11.15;68.96
38452;BME280;24231;52.514;13.438;2023-02-23T19:42:33;100623.84;;;10.70;70.80
38452;BME280;24231;52.514;13.438;2023-02-23T19:45:02;100621.52;;;11.28;68.75
38452;BME280;24231;52.514;13.438;2023-02-23T19:47:29;100626.52;;;9.17;77.89
38452;BME280;24231;52.514;13.438;2023-02-23T19:49:58;100622.20;;;9.88;76.99
38452;BME280;24231;52.514;13.438;2023-02-23T19:52:25;100622.57;;;9.42;78.31
38452;BME280;24231;52.514;13.438;2023-02-23T19:55:24;100622.72;;;11.10;71.05
38452;BME280;24231;52.514;13.438;2023-02-23T19:57:51;100621.85;;;11.01;68.86
38452;BME280;24231;52.514;13.438;2023-02-23T20:00:20;100616.86;;;12.04;66.61
38452;BME280;24231;52.514;13.438;2023-02-23T20:02:50;100621.63;;;11.28;67.95
38452;BME280;24231;52.514;13.438;2023-02-23T20:05:18;100620.85;;;9.26;76.30
38452;BME280;24231;52.514;13.438;2023-02-23T20:07:46;100615.79;;;9.43;75.98
38452;BME280;24231;52.514;13.438;2023-02-23T20:10:19;100617.69;;;9.99;74.61
38452;BME280;24231;52.514;13.438;2023-02-23T20:12:46;100626.25;;;9.11;78.24
38452;BME280;24231;52.514;13.438;2023-02-23T20:15:14;100630.80;;;9.30;75.25
38452;BME280;24231;52.514;13.438;2023-02-23T20:17:42;100628.21;;;8.89;77.44
38452;BME280;24231;52.514;13.438;2023-02-23T20:20:10;100635.64;;;8.86;77.49
38452;BME280;24231;52.514;13.438;2023-02-23T20:22:38;100637.14;;;8.88;75.92
38452;BME280;24231;52.514;13.438;2023-02-23T20:25:06;100637.03;;;8.21;77.21
38452;BME280;24231;52.514;13.438;2023-02-23T20:27:35;100638.27;;;7.83;77.79
38452;BME280;24231;52.514;13.438;2023-02-23T20:30:02;100635.91;;;8.46;76.05
38452;BME280;24231;52.514;13.438;2023-02-23T20:32:30;100639.22;;;8.65;74.92
38452;BME280;24231;52.514;13.438;2023-02-23T20:34:58;100637.76;;;8.49;74.90
38452;BME280;24231;52.514;13.438;2023-02-23T20:37:25;100634.70;;;8.17;76.93
38452;BME280;24231;52.514;13.438;2023-02-23T20:39:53;100630.61;;;8.29;74.56